Flight Track Log - Related Links

Times and Time Zones

All times are in EDT time to prevent confusion due to time zone crossing. See the N81AX flight status page for this flight to view local times or setup timezone preferences in your user account.

Time Position Orientation Groundspeed Altitude Reporting Facility
EDT Latitude Longitude Course Direction KTS MPH feet Rate Location/Type
Wed 04:56:26 PM 41.8883 -84.7486 253° West 289 333 4,800  Level Chicago Center
Wed 04:57:29 PM 41.8606 -84.8472 249° West 291 335 4,800 3,552 Level Chicago Center
Wed 04:58:31 PM 41.8425 -84.9544 257° West 298 343 12,200 5,419 Climbing Chicago Center
Wed 04:59:33 PM 41.8122 -85.0778 252° West 344 396 16,000 2,976 Climbing Chicago Center
Wed 05:00:36 PM 41.7786 -85.2028 250° West 357 411 18,400 2,333 Climbing Chicago Center
Wed 05:01:00 PM 41.7387 -85.2433 253° West  Level FlightAware Approximate
Wed 05:01:39 PM 41.7297 -85.3661 248° West 400 460 20,900  Level Chicago Center
Wed 05:02:41 PM 41.6881 -85.5067 248° West 419 482 23,400 2,323 Climbing Chicago Center
Wed 05:03:43 PM 41.6531 -85.6531 252° West 422 486 25,700 2,468 Climbing Chicago Center
Wed 05:04:45 PM 41.6111 -85.8342 253° West 428 493 28,500 2,468 Climbing Chicago Center
Wed 05:05:47 PM 41.5731 -85.9817 251° West 424 488 30,800 1,887 Climbing Chicago Center
Wed 05:06:49 PM 41.5317 -86.1283 249° West 425 489 32,400 1,500 Climbing Chicago Center
Wed 05:07:51 PM 41.4831 -86.2742 246° West 431 496 33,900 1,258 Climbing Chicago Center
Wed 05:08:53 PM 41.4389 -86.4267 249° West 441 507 35,000 968 Climbing Chicago Center
Wed 05:09:55 PM 41.3931 -86.5814 248° West 449 517 35,900 1,355 Climbing Chicago Center
Wed 05:10:57 PM 41.3392 -86.7719 249° West 452 520 37,800 1,392 Climbing Chicago Center
Wed 05:12:00 PM 41.2958 -86.9217 249° West 438 504 38,800 576 Climbing Chicago Center
Wed 05:13:02 PM 41.2475 -87.0750 247° West 449 517 39,000 774 Climbing Chicago Center
Wed 05:14:04 PM 41.2014 -87.2283 248° West 451 519 40,400 1,306 Climbing Chicago Center
Wed 05:15:06 PM 41.1592 -87.3767 249° West 438 504 41,700 629 Climbing Chicago Center
Wed 05:16:08 PM 41.1075 -87.5519 249° West 428 493 41,700 48 Level Chicago Center
Wed 05:17:10 PM 41.0631 -87.6997 248° West 432 497 41,800 290 Climbing Chicago Center
Wed 05:18:12 PM 41.0239 -87.8503 251° West 431 496 42,300 387 Climbing Chicago Center
Wed 05:19:14 PM 40.9875 -88.0000 252° West 428 493 42,600 242 Climbing Chicago Center
Wed 05:20:16 PM 40.9453 -88.1458 249° West 426 490 42,800 242 Climbing Chicago Center
Wed 05:21:18 PM 40.9033 -88.2911 249° West 424 488 43,100 97 Climbing Chicago Center
Wed 05:22:20 PM 40.8600 -88.4375 249° West 427 491 43,000 -48 Descending Chicago Center
Wed 05:23:23 PM 40.8056 -88.6117 248° West 429 494 43,000  Level Chicago Center
Wed 05:24:25 PM 40.7614 -88.7569 248° West 428 493 43,000  Level Chicago Center
Wed 05:25:27 PM 40.7189 -88.8922 248° West 433 498 43,000  Level Chicago Center
Wed 05:26:29 PM 40.6736 -89.0383 248° West 433 498 43,000  Level Chicago Center
Wed 05:27:31 PM 40.6189 -89.2158 248° West 435 501 43,000  Level Chicago Center
Wed 05:28:33 PM 40.5742 -89.3639 248° West 434 499 43,000  Level Chicago Center
Wed 05:29:35 PM 40.5294 -89.5131 249° West 435 501 43,000  Level Chicago Center
Wed 05:30:37 PM 40.4861 -89.6669 250° West 436 502 43,000  Level Chicago Center
Wed 05:31:39 PM 40.4367 -89.8131 246° West 447 514 43,000  Level Chicago Center
Wed 05:32:41 PM 40.3881 -89.9603 247° West 436 502 43,000  Level Chicago Center
Wed 05:33:44 PM 40.3394 -90.1053 246° West 433 498 43,000  Level Chicago Center
Wed 05:34:46 PM 40.2919 -90.2514 247° West 433 498 43,000  Level Chicago Center
Wed 05:35:48 PM 40.2342 -90.4292 247° West 441 507 43,000  Level Chicago Center
Wed 05:36:50 PM 40.1872 -90.5733 247° West 430 495 43,000  Level Chicago Center
Wed 05:37:52 PM 40.1361 -90.7317 247° West 438 504 43,000  Level Chicago Center
Wed 05:38:54 PM 40.0889 -90.8767 247° West 438 504 43,000  Level Chicago Center
Wed 05:39:45 PM 40.0522 -90.9931 248° West 437 503 43,000  Level Kansas City Center
Wed 05:40:47 PM 40.0111 -91.1417 250° West 438 504 43,000  Level Kansas City Center
Wed 05:41:49 PM 39.9711 -91.2908 251° West 439 505 43,000  Level Kansas City Center
Wed 05:42:51 PM 39.9203 -91.4708 250° West 442 509 43,000  Level Kansas City Center
Wed 05:43:53 PM 39.8803 -91.6200 251° West 440 506 43,000  Level Kansas City Center
Wed 05:44:55 PM 39.8411 -91.7681 251° West 438 504 43,000  Level Kansas City Center
Wed 05:45:57 PM 39.8003 -91.9144 250° West 434 499 43,000  Level Kansas City Center
Wed 05:46:59 PM 39.7581 -92.0614 250° West 434 499 43,000  Level Kansas City Center
Wed 05:48:01 PM 39.7142 -92.2081 249° West 436 502 43,000  Level Kansas City Center
Wed 05:49:03 PM 39.6622 -92.3822 249° West 433 498 43,000  Level Kansas City Center
Wed 05:50:05 PM 39.6183 -92.5256 248° West 430 495 43,000  Level Kansas City Center
Wed 05:51:07 PM 39.5747 -92.6683 248° West 429 494 43,000  Level Kansas City Center
Wed 05:52:09 PM 39.5303 -92.8103 248° West 427 491 43,000  Level Kansas City Center
Wed 05:53:11 PM 39.4867 -92.9497 248° West 422 486 43,000  Level Kansas City Center
Wed 05:54:13 PM 39.4333 -93.1233 248° West 432 497 43,000  Level Kansas City Center
Wed 05:55:15 PM 39.3911 -93.2692 250° West 435 501 43,000  Level Kansas City Center
Wed 05:56:17 PM 39.3506 -93.4139 250° West 432 497 43,000  Level Kansas City Center
Wed 05:57:19 PM 39.3092 -93.5575 250° West 431 496 43,000  Level Kansas City Center
Wed 05:58:21 PM 39.2603 -93.7197 249° West 426 490 43,000  Level Kansas City Center
Wed 05:59:26 PM 39.2189 -93.8556 249° West 426 490 43,000  Level Kansas City Center
Wed 06:00:28 PM 39.1689 -94.0128 248° West 423 487 43,000  Level Kansas City Center
Wed 06:01:30 PM 39.1267 -94.1453 248° West 418 481 43,000  Level Kansas City Center
Wed 06:02:32 PM 39.0786 -94.3006 248° West 416 479 43,000  Level Kansas City Center
Wed 06:03:34 PM 39.0383 -94.4328 249° West 414 476 43,000  Level Kansas City Center
Wed 06:04:36 PM 38.9914 -94.5858 249° West 412 474 43,000 -97 Level Kansas City Center
Wed 06:05:38 PM 38.9492 -94.7178 248° West 414 476 42,800 -823 Descending Kansas City Center
Wed 06:06:40 PM 38.9008 -94.8739 248° West 419 482 41,300 -1,355 Descending Kansas City Center
Wed 06:07:42 PM 38.8558 -95.0086 247° West 425 489 40,000 -1,306 Descending Kansas City Center
Wed 06:08:44 PM 38.8142 -95.1406 248° West 415 478 38,600 -968 Descending Kansas City Center
Wed 06:09:46 PM 38.7647 -95.2961 248° West 420 483 38,000 -290 Descending Kansas City Center
Wed 06:10:48 PM 38.7197 -95.4303 247° West 427 491 38,000  Level Kansas City Center
Wed 06:11:50 PM 38.6678 -95.5861 247° West 426 490 38,000 -629 Level Kansas City Center
Wed 06:12:52 PM 38.6239 -95.7156 247° West 416 479 36,700 -1,984 Descending Kansas City Center
Wed 06:13:54 PM 38.5703 -95.8739 247° West 432 497 33,900 -2,226 Descending Kansas City Center
Wed 06:14:56 PM 38.5272 -96.0081 248° West 429 494 32,100 -1,403 Descending Kansas City Center
Wed 06:15:58 PM 38.4844 -96.1422 248° West 424 488 31,000 -968 Descending Kansas City Center
Wed 06:17:00 PM 38.4314 -96.2958 246° West 423 487 30,100 -1,887 Descending Kansas City Center
Wed 06:18:02 PM 38.3864 -96.4281 247° West 424 488 27,100 -3,339 Descending Kansas City Center
Wed 06:19:04 PM 38.3353 -96.5642 244° Southwest 430 495 23,200 -4,095 Descending Kansas City Center
Wed 06:20:08 PM 38.2478 -96.6817 227° Southwest 384 442 18,500 -4,109 Descending Kansas City Center
Wed 06:20:36 PM 38.2111 -96.7233 222° Southwest 367 422 16,900 -3,700 Descending Kansas City Center
Wed 06:21:08 PM 38.1753 -96.7719 227° Southwest 366 421 14,800 -2,965 Descending Kansas City Center
Wed 06:22:01 PM 38.1169 -96.8508 227° Southwest 326 375 12,700 -2,160 Descending Kansas City Center
Wed 06:23:13 PM 38.0581 -96.9356 229° Southwest 301 346 10,300 -2,079 Descending Kansas City Center
Wed 06:24:08 PM 37.9981 -97.0058 223° Southwest 286 329 8,300 -2,018 Descending Kansas City Center
Wed 06:25:03 PM 37.9494 -97.0667 225° Southwest 264 304 6,600 -1,252 Descending Kansas City Center
Wed 06:26:03 PM 37.8950 -97.1311 223° Southwest 263 303 5,900 -474 Descending Kansas City Center
Wed 06:26:19 PM 37.8933 -97.1364 248° West 269 310 6,000 98 Climbing Kansas City Center
Wed 06:27:04 PM 37.8428 -97.1978 224° Southwest 267 307 6,000  Level Kansas City Center
Wed 06:27:21 PM 37.8308 -97.2150 229° Southwest 265 305 6,000 -806 Level Kansas City Center
Wed 06:28:11 PM 37.7775 -97.2608 214° Southwest 252 290 5,100 -1,086 Descending Kansas City Center
Wed 06:29:17 PM 37.7081 -97.3036 206° Southwest 256 295 3,900 -485 Descending Kansas City Center
Wed 06:30:27 PM 37.6353 -97.3322 197° South 263 303 4,000 47 Climbing Kansas City Center
Wed 06:31:25 PM 37.5622 -97.3581 196° South 251 289 4,000  Level Kansas City Center
Wed 06:32:13 PM 37.5156 -97.3758 197° South 199 229 4,000  Level Kansas City Center
Wed 06:32:31 PM 37.5086 -97.3778 193° South 239 275 4,000  Level Kansas City Center
Wed 06:33:14 PM 37.4614 -97.4000 200° South 204 235 4,000 -194 Level Kansas City Center
Wed 06:33:33 PM 37.4525 -97.4194 240° Southwest 222 255 3,800 -800 Descending Kansas City Center
Wed 06:34:14 PM 37.4497 -97.4756 266° West 236 272 3,200 -677 Descending Kansas City Center
Wed 06:34:35 PM 37.4592 -97.4964 300° West 226 260 3,100 -393 Descending Kansas City Center
Wed 06:35:15 PM 37.4936 -97.4953 North 179 206 2,800 -194 Descending Kansas City Center
Wed 06:35:37 PM 37.5061 -97.4903 18° North 193 222 2,900 222 Climbing Kansas City Center
Wed 06:36:09 PM 37.5317 -97.4761 24° Northeast 155 178 3,000 97 Climbing Kansas City Center
Wed 06:36:39 PM 37.5489 -97.4706 14° North 176 203 3,000 -393 Level Kansas City Center
Wed 06:37:10 PM 37.5722 -97.4594 21° North 144 166 2,600 -484 Descending Kansas City Center
Wed 06:37:41 PM 37.5856 -97.4525 22° Northeast 160 184 2,500 -493 Descending Kansas City Center
Wed 06:38:23 PM 37.6083 -97.4433 18° North 114 131 2,000 -581 Descending Kansas City Center
Wed 06:38:43 PM 37.6156 -97.4394 23° Northeast 137 158 1,900 -556 Descending Kansas City Center
Wed 06:39:17 PM 37.6325 -97.4317 20° North 102 117 1,500 -387 Descending Kansas City Center
Wed 06:39:45 PM 37.6472 -97.4258 17° North 125 144 1,500  Level Kansas City Center

Login

Don't have an account? Register now (free) for customized features, flight alerts, and more!